createdAt,value
2017-08-13T00:00:07.279Z,2.3
2017-08-13T00:01:09.778Z,2.1
2017-08-13T00:02:12.280Z,2.3
2017-08-13T00:03:14.782Z,2.3
2017-08-13T00:04:17.655Z,2.3
2017-08-13T00:05:20.517Z,2.3
2017-08-13T00:06:22.999Z,2.4
2017-08-13T00:07:25.512Z,2.3
2017-08-13T00:08:28.355Z,2.3
2017-08-13T00:09:30.857Z,2.3
2017-08-13T00:10:33.355Z,2.3
2017-08-13T00:11:35.850Z,2.3
2017-08-13T00:12:38.333Z,2.3
2017-08-13T00:13:41.184Z,2.3
2017-08-13T00:14:43.690Z,2.3
2017-08-13T00:15:46.178Z,2.3
2017-08-13T00:16:49.383Z,2.3
2017-08-13T00:17:51.891Z,2.2
2017-08-13T00:18:54.407Z,2.2
2017-08-13T00:19:57.260Z,2.3
2017-08-13T00:20:59.762Z,2.2
2017-08-13T00:22:02.624Z,2.3
2017-08-13T00:23:05.801Z,2.3
2017-08-13T00:24:09.324Z,2.3
2017-08-13T00:25:12.183Z,2.3
2017-08-13T00:26:15.024Z,2.3
2017-08-13T00:27:17.538Z,2.3
2017-08-13T00:28:20.388Z,2.2
2017-08-13T00:29:23.255Z,2.3
2017-08-13T00:30:26.105Z,2.3
2017-08-13T00:31:28.613Z,2.1
2017-08-13T00:32:31.098Z,2.3
2017-08-13T00:33:33.950Z,2.3
2017-08-13T00:34:36.459Z,2.3
2017-08-13T00:35:38.966Z,2.2
2017-08-13T00:36:41.802Z,2.3
2017-08-13T00:37:44.292Z,2.3
2017-08-13T00:38:46.808Z,2.3
2017-08-13T00:39:49.329Z,2.3
2017-08-13T00:40:52.173Z,2.3
2017-08-13T00:41:54.675Z,2.3
2017-08-13T00:42:57.194Z,2.3
2017-08-13T00:44:00.041Z,2.3
2017-08-13T00:45:03.569Z,2.3
2017-08-13T00:46:06.767Z,2.3
2017-08-13T00:47:09.595Z,2.3
2017-08-13T00:48:12.784Z,2.4
2017-08-13T00:49:15.614Z,2.3
2017-08-13T00:50:18.469Z,2.3
2017-08-13T00:51:21.315Z,2.3
2017-08-13T00:52:24.171Z,2.1
2017-08-13T00:53:27.348Z,2.4
2017-08-13T00:54:29.857Z,2.3
2017-08-13T00:55:32.361Z,2.3
2017-08-13T00:56:35.226Z,2.3
2017-08-13T00:57:37.718Z,2.3
2017-08-13T00:58:40.230Z,2.3
2017-08-13T00:59:42.738Z,2.3
2017-08-13T01:00:45.231Z,2.3
2017-08-13T01:01:47.743Z,2.3
2017-08-13T01:02:50.266Z,2.3
2017-08-13T01:03:53.113Z,2.3
2017-08-13T01:04:55.619Z,2.3
2017-08-13T01:05:58.458Z,2.3
2017-08-13T01:07:00.962Z,2.3
2017-08-13T01:08:03.803Z,2.3
2017-08-13T01:09:06.638Z,2.3
2017-08-13T01:10:09.494Z,2.4
2017-08-13T01:11:12.345Z,2.3
2017-08-13T01:12:14.852Z,2.4
2017-08-13T01:13:17.703Z,2.4
2017-08-13T01:14:20.568Z,2.4
2017-08-13T01:15:23.099Z,2.2
2017-08-13T01:16:25.598Z,2.4
2017-08-13T01:17:28.113Z,2.2
2017-08-13T01:18:30.611Z,2.4
2017-08-13T01:19:33.806Z,2.2
2017-08-13T01:20:36.320Z,2.4
2017-08-13T01:21:39.163Z,2.4
2017-08-13T01:22:41.998Z,2.2
2017-08-13T01:23:44.833Z,2.3
2017-08-13T01:24:47.358Z,2.4
2017-08-13T01:25:49.861Z,2.2
2017-08-13T01:26:52.389Z,2.4
2017-08-13T01:27:54.897Z,2.4
2017-08-13T01:28:57.414Z,2.4
2017-08-13T01:29:59.911Z,2.4
2017-08-13T01:31:02.439Z,2.4
2017-08-13T01:32:05.267Z,2.4
2017-08-13T01:33:07.788Z,2.4
2017-08-13T01:34:10.293Z,2.4
2017-08-13T01:35:13.144Z,2.4
2017-08-13T01:36:15.989Z,2.4
2017-08-13T01:37:18.493Z,2.3
2017-08-13T01:38:20.985Z,2.4
2017-08-13T01:39:23.855Z,2.3
2017-08-13T01:40:26.345Z,2.4
2017-08-13T01:41:28.859Z,2.3
2017-08-13T01:42:31.348Z,2.2
2017-08-13T01:43:33.854Z,2.4
2017-08-13T01:44:37.039Z,2.3
2017-08-13T01:45:39.542Z,2.3
2017-08-13T01:46:42.044Z,2.3
2017-08-13T01:47:44.892Z,2.3
2017-08-13T01:48:47.742Z,2.4
2017-08-13T01:49:50.914Z,2.3
2017-08-13T01:50:53.405Z,2.3
2017-08-13T01:51:56.255Z,2.1
2017-08-13T01:52:58.761Z,2.3
2017-08-13T01:54:02.290Z,2.3
2017-08-13T01:55:04.806Z,2.3
2017-08-13T01:56:07.332Z,2
2017-08-13T01:57:10.178Z,2.2
2017-08-13T01:58:12.691Z,2.3
2017-08-13T01:59:15.191Z,2.3
2017-08-13T02:00:18.388Z,2.2
2017-08-13T02:01:20.898Z,2.2
2017-08-13T02:02:23.751Z,2.3
2017-08-13T02:03:26.259Z,2.3
2017-08-13T02:04:28.771Z,2.1
2017-08-13T02:05:31.295Z,2.3
2017-08-13T02:06:33.792Z,2.2
2017-08-13T02:07:36.276Z,2.2
2017-08-13T02:08:38.783Z,2.3
2017-08-13T02:09:41.283Z,2.2
2017-08-13T02:10:44.138Z,2.2
2017-08-13T02:11:46.650Z,2.1
2017-08-13T02:12:49.468Z,2.3
2017-08-13T02:13:51.976Z,2.3
2017-08-13T02:14:54.497Z,2.3
2017-08-13T02:15:56.995Z,2.3
2017-08-13T02:16:59.508Z,2.3
2017-08-13T02:18:02.335Z,2.2
2017-08-13T02:19:04.860Z,2.3
2017-08-13T02:20:07.343Z,2.3
2017-08-13T02:21:10.539Z,2.3
2017-08-13T02:22:13.057Z,2.3
2017-08-13T02:23:15.546Z,2.3
2017-08-13T02:24:18.066Z,2.2
2017-08-13T02:25:20.562Z,2.3
2017-08-13T02:26:23.066Z,2.2
2017-08-13T02:27:25.657Z,2.3
2017-08-13T02:28:28.167Z,2.3
2017-08-13T02:29:30.665Z,2.3
2017-08-13T02:30:33.180Z,2.2
2017-08-13T02:31:36.045Z,2.3
2017-08-13T02:32:38.899Z,2.3
2017-08-13T02:33:41.753Z,2.2
2017-08-13T02:34:44.613Z,2.2
2017-08-13T02:35:47.129Z,2.2
2017-08-13T02:36:50.688Z,2.3
2017-08-13T02:37:53.538Z,2.2
2017-08-13T02:38:56.045Z,2.3
2017-08-13T02:39:58.560Z,2.3
2017-08-13T02:41:01.070Z,2.2
2017-08-13T02:42:03.577Z,2.2
2017-08-13T02:43:06.080Z,2.2
2017-08-13T02:44:08.582Z,2.2
2017-08-13T02:45:11.106Z,2.2
2017-08-13T02:46:13.621Z,2.3
2017-08-13T02:47:16.118Z,2.1
2017-08-13T02:48:18.625Z,2.2
2017-08-13T02:49:21.142Z,2.2
2017-08-13T02:50:24.034Z,2.2
2017-08-13T02:51:26.871Z,2.2
2017-08-13T02:52:29.740Z,2.2
2017-08-13T02:53:32.600Z,2.2
2017-08-13T02:54:35.456Z,2.2
2017-08-13T02:55:38.298Z,2.2
2017-08-13T02:56:40.816Z,2.2
2017-08-13T02:57:43.313Z,2.2
2017-08-13T02:58:45.828Z,2.2
2017-08-13T02:59:48.363Z,2.2
2017-08-13T03:00:50.851Z,2.2
2017-08-13T03:01:53.717Z,2.3
2017-08-13T03:02:56.569Z,2.2
2017-08-13T03:03:59.417Z,2.2
2017-08-13T03:05:02.939Z,2.2
2017-08-13T03:06:06.132Z,2.2
2017-08-13T03:07:08.635Z,2.2
2017-08-13T03:08:11.150Z,2.3
2017-08-13T03:09:13.645Z,2.3
2017-08-13T03:10:16.155Z,2.2
2017-08-13T03:11:18.662Z,2.2
2017-08-13T03:12:21.181Z,2.3
2017-08-13T03:13:24.020Z,2.3
2017-08-13T03:14:26.866Z,2.2
2017-08-13T03:15:29.364Z,2.1
2017-08-13T03:16:32.203Z,2.3
2017-08-13T03:17:34.709Z,2.3
2017-08-13T03:18:37.554Z,2.2
2017-08-13T03:19:40.034Z,2.3
2017-08-13T03:20:42.531Z,2.3
2017-08-13T03:21:45.069Z,2.2
2017-08-13T03:22:47.911Z,2.3
2017-08-13T03:23:50.421Z,2.2
2017-08-13T03:24:52.925Z,2.2
2017-08-13T03:25:55.409Z,2.2
2017-08-13T03:26:57.930Z,2.2
2017-08-13T03:28:00.438Z,2.2
2017-08-13T03:29:02.951Z,2.1
2017-08-13T03:30:05.812Z,2.2
2017-08-13T03:31:08.337Z,2.2
2017-08-13T03:32:11.200Z,2.2
2017-08-13T03:33:13.717Z,2.2
2017-08-13T03:34:16.554Z,2.3
2017-08-13T03:35:19.059Z,2.3
2017-08-13T03:36:22.232Z,2.2
2017-08-13T03:37:24.745Z,2.1
2017-08-13T03:38:27.236Z,2.2
2017-08-13T03:39:29.746Z,2.3
2017-08-13T03:40:32.242Z,2.2
2017-08-13T03:41:34.737Z,2.3
2017-08-13T03:42:37.245Z,2.2
2017-08-13T03:43:39.745Z,2.3
2017-08-13T03:44:42.251Z,2.3
2017-08-13T03:45:44.767Z,2.3
2017-08-13T03:46:47.279Z,2.3
2017-08-13T03:47:50.102Z,2.3
2017-08-13T03:48:52.955Z,2.2
2017-08-13T03:49:55.455Z,2.3
2017-08-13T03:50:57.984Z,2.3
2017-08-13T03:52:00.481Z,2.2
2017-08-13T03:53:02.978Z,2.2
2017-08-13T03:54:05.481Z,2.3
2017-08-13T03:55:08.335Z,2.3
2017-08-13T03:56:10.865Z,2.3
2017-08-13T03:57:13.363Z,2.3
2017-08-13T03:58:16.198Z,2.3
2017-08-13T03:59:18.697Z,2.3
2017-08-13T04:00:21.224Z,2.3
2017-08-13T04:01:23.712Z,2.3
2017-08-13T04:02:26.214Z,2.3
2017-08-13T04:03:29.084Z,2.3
2017-08-13T04:04:31.582Z,2.3
2017-08-13T04:05:34.089Z,2.3
2017-08-13T04:06:36.595Z,2.3
2017-08-13T04:07:39.102Z,2.3
2017-08-13T04:08:41.938Z,2.3
2017-08-13T04:09:44.772Z,2.3
2017-08-13T04:10:47.619Z,2.3
2017-08-13T04:11:50.137Z,2.3
2017-08-13T04:12:52.636Z,2.3
2017-08-13T04:13:55.133Z,2.3
2017-08-13T04:14:58.020Z,2.4
2017-08-13T04:16:00.526Z,2.3
2017-08-13T04:17:03.032Z,2.3
2017-08-13T04:18:05.519Z,2.3
2017-08-13T04:19:08.039Z,2.3
2017-08-13T04:20:10.545Z,2.3
2017-08-13T04:21:13.054Z,2.3
2017-08-13T04:22:15.549Z,2.3
2017-08-13T04:23:18.400Z,2.3
2017-08-13T04:24:20.888Z,2.3
2017-08-13T04:25:23.417Z,2.3
2017-08-13T04:26:26.237Z,2.3
2017-08-13T04:27:29.164Z,2.3
2017-08-13T04:28:32.356Z,2.3
2017-08-13T04:29:34.869Z,2.3
2017-08-13T04:30:37.710Z,2.3
2017-08-13T04:31:40.221Z,2.3
2017-08-13T04:32:42.733Z,2.3
2017-08-13T04:33:45.237Z,2.3
2017-08-13T04:34:48.411Z,2.3
2017-08-13T04:35:50.896Z,2.4
2017-08-13T04:36:54.434Z,2.4
2017-08-13T04:37:56.939Z,2.3
2017-08-13T04:38:59.448Z,2.3
2017-08-13T04:40:02.643Z,2.3
2017-08-13T04:41:05.144Z,2.3
2017-08-13T04:42:07.644Z,2.3
2017-08-13T04:43:10.182Z,2.4
2017-08-13T04:44:12.669Z,2.3
2017-08-13T04:45:15.178Z,2.4
2017-08-13T04:46:17.686Z,2.4
2017-08-13T04:47:20.191Z,2.4
2017-08-13T04:48:22.684Z,2.4
2017-08-13T04:49:25.187Z,2.4
2017-08-13T04:50:27.685Z,2.3
2017-08-13T04:51:30.195Z,2.4
2017-08-13T04:52:32.697Z,2.3
2017-08-13T04:53:35.202Z,2.3
2017-08-13T04:54:37.710Z,2.3
2017-08-13T04:55:40.218Z,2.4
2017-08-13T04:56:42.739Z,2.3
2017-08-13T04:57:45.232Z,2.4
2017-08-13T04:58:47.737Z,2.4
2017-08-13T04:59:50.588Z,2.4
2017-08-13T05:00:53.099Z,2.4
2017-08-13T05:01:55.597Z,2.4
2017-08-13T05:02:58.435Z,2.4
2017-08-13T05:04:00.954Z,2.4
2017-08-13T05:05:03.793Z,2.4
2017-08-13T05:06:06.308Z,2.4
2017-08-13T05:07:08.822Z,2.4
2017-08-13T05:08:11.338Z,2.4
2017-08-13T05:09:14.193Z,2.4
2017-08-13T05:10:16.689Z,2.3
2017-08-13T05:11:19.198Z,2.4
2017-08-13T05:12:22.056Z,2.4
2017-08-13T05:13:24.556Z,2.3
2017-08-13T05:14:27.412Z,2.4
2017-08-13T05:15:29.922Z,2.4
2017-08-13T05:16:32.420Z,2.4
2017-08-13T05:17:34.930Z,2.3
2017-08-13T05:18:37.434Z,2.4
2017-08-13T05:19:39.941Z,2.4
2017-08-13T05:20:42.443Z,2.4
2017-08-13T05:21:44.969Z,2.4
2017-08-13T05:22:47.813Z,2.4
2017-08-13T05:23:50.658Z,2.4
2017-08-13T05:24:53.175Z,2.4
2017-08-13T05:25:56.018Z,2.4
2017-08-13T05:26:58.513Z,2.4
2017-08-13T05:28:01.005Z,2.3
2017-08-13T05:29:03.514Z,2.4
2017-08-13T05:30:06.033Z,2.4
2017-08-13T05:31:08.890Z,2.4
2017-08-13T05:32:11.742Z,2.4
2017-08-13T05:33:14.586Z,2.4
2017-08-13T05:34:17.106Z,2.4
2017-08-13T05:35:19.610Z,2.4
2017-08-13T05:36:22.121Z,2.4
2017-08-13T05:37:24.624Z,2.4
2017-08-13T05:38:27.124Z,2.4
2017-08-13T05:39:30.647Z,2.4
2017-08-13T05:40:33.517Z,2.4
2017-08-13T05:41:36.039Z,2.4
2017-08-13T05:42:38.559Z,2.4
2017-08-13T05:43:41.055Z,2.3
2017-08-13T05:44:43.557Z,2.3
2017-08-13T05:45:46.060Z,2.3
2017-08-13T05:46:49.264Z,2.3
2017-08-13T05:47:51.768Z,2.4
2017-08-13T05:48:54.604Z,2.4
2017-08-13T05:49:57.114Z,2.3
2017-08-13T05:50:59.624Z,2.4
2017-08-13T05:52:02.118Z,2.4
2017-08-13T05:53:04.961Z,2.3
2017-08-13T05:54:07.813Z,2.4
2017-08-13T05:55:10.320Z,2.4
2017-08-13T05:56:12.822Z,2.4
2017-08-13T05:57:15.329Z,2.4
2017-08-13T05:58:17.816Z,2.4
2017-08-13T05:59:20.348Z,2.5
2017-08-13T06:00:23.182Z,2.4
2017-08-13T06:01:25.679Z,2.4
2017-08-13T06:02:28.197Z,2.4
2017-08-13T06:03:31.056Z,2.4
2017-08-13T06:04:33.566Z,2.5
2017-08-13T06:05:36.079Z,2.4
2017-08-13T06:06:38.940Z,2.4
2017-08-13T06:07:41.437Z,2.5
2017-08-13T06:08:43.933Z,2.5
2017-08-13T06:09:46.772Z,2.5
2017-08-13T06:10:49.272Z,2.4
2017-08-13T06:11:51.792Z,2.5
2017-08-13T06:12:54.280Z,2.5
2017-08-13T06:13:56.805Z,2.5
2017-08-13T06:14:59.663Z,2.4
2017-08-13T06:16:02.168Z,2.4
2017-08-13T06:17:04.691Z,2.5
2017-08-13T06:18:07.557Z,2.5
2017-08-13T06:19:10.394Z,2.5
2017-08-13T06:20:13.260Z,2.5
2017-08-13T06:21:16.124Z,2.5
2017-08-13T06:22:18.638Z,2.5
2017-08-13T06:23:21.141Z,2.5
2017-08-13T06:24:23.648Z,2.5
2017-08-13T06:25:26.161Z,2.5
2017-08-13T06:26:28.674Z,2.5
2017-08-13T06:27:31.550Z,2.5
2017-08-13T06:28:34.065Z,2.5
2017-08-13T06:29:36.565Z,2.6
2017-08-13T06:30:39.086Z,2.5
2017-08-13T06:31:41.581Z,2.5
2017-08-13T06:32:44.098Z,2.5
2017-08-13T06:33:46.942Z,2.5
2017-08-13T06:34:49.477Z,2.5
2017-08-13T06:35:51.973Z,2.5
2017-08-13T06:36:54.817Z,2.6
2017-08-13T06:37:57.308Z,2.5
2017-08-13T06:38:59.817Z,2.5
2017-08-13T06:40:02.692Z,2.5
2017-08-13T06:41:05.532Z,2.5
2017-08-13T06:42:08.050Z,2.6
2017-08-13T06:43:10.560Z,2.6
2017-08-13T06:44:13.068Z,2.5
2017-08-13T06:45:15.591Z,2.6
2017-08-13T06:46:18.108Z,2.6
2017-08-13T06:47:20.639Z,2.6
2017-08-13T06:48:23.156Z,2.5
2017-08-13T06:49:25.677Z,2.5
2017-08-13T06:50:28.176Z,2.6
2017-08-13T06:51:31.030Z,2.6
2017-08-13T06:52:33.538Z,2.6
2017-08-13T06:53:36.064Z,2.6
2017-08-13T06:54:39.271Z,2.7
2017-08-13T06:55:41.784Z,2.6
2017-08-13T06:56:44.272Z,2.6
2017-08-13T06:57:47.136Z,2.6
2017-08-13T06:58:49.672Z,2.7
2017-08-13T06:59:52.500Z,2.7
2017-08-13T07:00:55.357Z,2.7
2017-08-13T07:01:58.202Z,2.7
2017-08-13T07:03:01.040Z,2.7
2017-08-13T07:04:03.577Z,2.8
2017-08-13T07:05:06.419Z,2.7
2017-08-13T07:06:09.269Z,2.8
2017-08-13T07:07:12.110Z,2.8
2017-08-13T07:08:14.615Z,2.8
2017-08-13T07:09:17.128Z,2.8
2017-08-13T07:10:19.645Z,2.8
2017-08-13T07:11:22.159Z,2.8
2017-08-13T07:12:25.041Z,2.7
2017-08-13T07:13:27.547Z,2.8
2017-08-13T07:14:30.062Z,2.7
2017-08-13T07:15:32.556Z,2.8
2017-08-13T07:16:35.070Z,2.8
2017-08-13T07:17:37.593Z,2.8
2017-08-13T07:18:40.098Z,2.9
2017-08-13T07:19:42.948Z,2.9
2017-08-13T07:20:45.472Z,2.9
2017-08-13T07:21:48.010Z,2.8
2017-08-13T07:22:50.505Z,2.8
2017-08-13T07:23:53.020Z,2.9
2017-08-13T07:24:55.520Z,2.9
2017-08-13T07:25:58.030Z,2.9
2017-08-13T07:27:00.540Z,2.9
2017-08-13T07:28:03.400Z,2.9
2017-08-13T07:29:05.896Z,2.9
2017-08-13T07:30:08.758Z,2.9
2017-08-13T07:31:11.270Z,3
2017-08-13T07:32:13.778Z,3
2017-08-13T07:33:16.630Z,3
2017-08-13T07:34:19.131Z,3
2017-08-13T07:35:21.642Z,3
2017-08-13T07:36:24.180Z,3
2017-08-13T07:37:26.684Z,3
2017-08-13T07:38:29.552Z,3
2017-08-13T07:39:32.053Z,3
2017-08-13T07:40:34.575Z,3
2017-08-13T07:41:37.104Z,2.9
2017-08-13T07:42:39.951Z,3
2017-08-13T07:43:42.458Z,3
2017-08-13T07:44:44.987Z,3
2017-08-13T07:45:47.824Z,2.9
2017-08-13T07:46:50.336Z,2.9
2017-08-13T07:47:52.863Z,3
2017-08-13T07:48:55.689Z,3
2017-08-13T07:49:58.563Z,3
2017-08-13T07:51:01.091Z,3
2017-08-13T07:52:03.949Z,3
2017-08-13T07:53:06.455Z,3
2017-08-13T07:54:08.971Z,3
2017-08-13T07:55:11.482Z,3
2017-08-13T07:56:14.004Z,3
2017-08-13T07:57:17.214Z,3
2017-08-13T07:58:20.056Z,3
2017-08-13T07:59:22.568Z,3
2017-08-13T08:00:25.764Z,3
2017-08-13T08:01:29.296Z,3
2017-08-13T08:02:32.149Z,3
2017-08-13T08:03:34.642Z,3
2017-08-13T08:04:37.527Z,3
2017-08-13T08:05:40.039Z,3
2017-08-13T08:06:42.545Z,3
2017-08-13T08:07:45.062Z,3
2017-08-13T08:08:47.911Z,3.1
2017-08-13T08:09:50.413Z,3.1
2017-08-13T08:10:52.941Z,3.1
2017-08-13T08:11:55.474Z,3.1
2017-08-13T08:12:57.971Z,3.1
2017-08-13T08:14:00.492Z,3
2017-08-13T08:15:03.346Z,3.1
2017-08-13T08:16:05.860Z,3.1
2017-08-13T08:17:08.403Z,3
2017-08-13T08:18:11.269Z,3.1
2017-08-13T08:19:14.134Z,3.2
2017-08-13T08:20:16.634Z,3.2
2017-08-13T08:21:19.151Z,3.2
2017-08-13T08:22:21.743Z,3.2
2017-08-13T08:23:24.237Z,3.2
2017-08-13T08:24:26.758Z,3.2
2017-08-13T08:25:29.602Z,3.1
2017-08-13T08:26:32.107Z,3.2
2017-08-13T08:27:34.653Z,3.2
2017-08-13T08:28:37.514Z,3.2
2017-08-13T08:29:40.008Z,3.2
2017-08-13T08:30:42.544Z,3.1
2017-08-13T08:31:45.058Z,3.2
2017-08-13T08:32:47.906Z,3.2
2017-08-13T08:33:50.439Z,3.2
2017-08-13T08:34:52.955Z,3.2
2017-08-13T08:35:55.794Z,3.2
2017-08-13T08:36:58.312Z,3.2
2017-08-13T08:38:00.804Z,3.2
2017-08-13T08:39:04.047Z,3.3
2017-08-13T08:40:06.559Z,3.1
2017-08-13T08:41:09.070Z,3.2
2017-08-13T08:42:11.624Z,3.2
2017-08-13T08:43:14.470Z,3.1
2017-08-13T08:44:16.963Z,3.2
2017-08-13T08:45:19.469Z,3.2
2017-08-13T08:46:21.998Z,3.2
2017-08-13T08:47:24.521Z,3.3
2017-08-13T08:48:27.017Z,3.2
2017-08-13T08:49:29.770Z,3.3
2017-08-13T08:50:32.641Z,3.3
2017-08-13T08:51:35.211Z,3.3
2017-08-13T08:52:37.737Z,3.3
2017-08-13T08:53:43.018Z,3.3
2017-08-13T08:54:46.233Z,3.2
2017-08-13T08:55:48.771Z,3.3
2017-08-13T08:56:51.293Z,3.4
2017-08-13T08:57:53.812Z,3.3
2017-08-13T08:58:56.664Z,3.3
2017-08-13T08:59:59.175Z,3.4
2017-08-13T09:01:01.716Z,3.3
2017-08-13T09:02:04.563Z,3.4
2017-08-13T09:03:07.439Z,3.4
2017-08-13T09:04:10.519Z,3.3
2017-08-13T09:05:13.034Z,3.3
2017-08-13T09:06:15.742Z,3.3
2017-08-13T09:07:24.878Z,3.4
2017-08-13T09:08:27.385Z,3.4
2017-08-13T09:09:29.883Z,3.4
2017-08-13T09:10:32.403Z,3.3
2017-08-13T09:11:35.238Z,3.3
2017-08-13T09:12:38.101Z,3.3
2017-08-13T09:13:41.958Z,3.4
2017-08-13T09:14:44.469Z,3.4
2017-08-13T09:15:46.979Z,3.4
2017-08-13T09:16:49.840Z,3.4
2017-08-13T09:17:53.048Z,3.4
2017-08-13T09:18:55.573Z,3.4
2017-08-13T09:19:58.072Z,3.5
2017-08-13T09:21:00.915Z,3.3
2017-08-13T09:22:03.433Z,3.4
2017-08-13T09:23:05.935Z,3.5
2017-08-13T09:24:08.443Z,3.4
2017-08-13T09:25:10.936Z,3.4
2017-08-13T09:26:13.441Z,3.4
2017-08-13T09:27:15.954Z,3.4
2017-08-13T09:28:18.442Z,3.5
2017-08-13T09:29:21.299Z,3.5
2017-08-13T09:30:23.801Z,3.5
2017-08-13T09:31:26.322Z,3.5
2017-08-13T09:32:29.163Z,3.5
2017-08-13T09:33:32.012Z,3.5
2017-08-13T09:34:34.850Z,3.5
2017-08-13T09:35:37.363Z,3.9
2017-08-13T09:36:40.544Z,3.6
2017-08-13T09:37:43.045Z,3.6
2017-08-13T09:38:45.558Z,3.6
2017-08-13T09:39:49.414Z,3.6
2017-08-13T09:40:51.918Z,3.6
2017-08-13T09:41:54.425Z,3.7
2017-08-13T09:42:57.817Z,3.6
2017-08-13T09:44:00.318Z,3.6
2017-08-13T09:45:03.181Z,3.6
2017-08-13T09:46:05.692Z,3.6
2017-08-13T09:47:08.204Z,3.7
2017-08-13T09:48:10.718Z,3.7
2017-08-13T09:49:13.570Z,3.6
2017-08-13T09:50:16.086Z,3.6
2017-08-13T09:51:18.563Z,3.6
2017-08-13T09:52:21.419Z,3.6
2017-08-13T09:53:24.279Z,3.7
2017-08-13T09:54:27.125Z,3.7
2017-08-13T09:55:29.995Z,3.6
2017-08-13T09:56:32.518Z,3.7
2017-08-13T09:57:35.357Z,3.9
2017-08-13T09:58:37.890Z,3.9
2017-08-13T09:59:40.411Z,3.9
2017-08-13T10:00:42.929Z,4.3
2017-08-13T10:01:45.437Z,3.8
2017-08-13T10:02:48.280Z,3.9
2017-08-13T10:03:50.798Z,3.9
2017-08-13T10:04:53.644Z,3.8
2017-08-13T10:05:56.175Z,4.2
2017-08-13T10:06:58.682Z,3.9
2017-08-13T10:08:01.537Z,3.9
2017-08-13T10:09:04.030Z,3.9
2017-08-13T10:10:06.555Z,3.9
2017-08-13T10:11:09.400Z,3.9
2017-08-13T10:12:11.893Z,4.1
2017-08-13T10:13:14.370Z,4
2017-08-13T10:14:17.199Z,4
2017-08-13T10:15:19.677Z,4
2017-08-13T10:16:22.498Z,4
2017-08-13T10:17:24.972Z,3.9
2017-08-13T10:18:27.810Z,4
2017-08-13T10:19:30.306Z,4
2017-08-13T10:20:33.186Z,4
2017-08-13T10:21:36.372Z,3.9
2017-08-13T10:22:39.219Z,4
2017-08-13T10:23:42.047Z,4
2017-08-13T10:24:44.546Z,4
2017-08-13T10:25:47.035Z,3.9
2017-08-13T10:26:49.921Z,4
2017-08-13T10:27:53.106Z,4.1
2017-08-13T10:28:55.596Z,4.1
2017-08-13T10:29:58.103Z,4.1
2017-08-13T10:31:00.929Z,4.1
2017-08-13T10:32:03.430Z,4.1
2017-08-13T10:33:05.940Z,4.1
2017-08-13T10:34:08.764Z,4.1
2017-08-13T10:35:11.261Z,4.1
2017-08-13T10:36:13.788Z,4.1
2017-08-13T10:37:16.283Z,4.1
2017-08-13T10:38:18.782Z,4
2017-08-13T10:39:21.279Z,3.9
2017-08-13T10:40:24.110Z,3.9
2017-08-13T10:41:26.963Z,3.9
2017-08-13T10:42:29.478Z,3.9
2017-08-13T10:43:31.960Z,3.9
2017-08-13T10:44:34.467Z,4
2017-08-13T10:45:36.949Z,3.9
2017-08-13T10:46:39.446Z,3.9
2017-08-13T10:47:41.949Z,3.9
2017-08-13T10:48:44.450Z,3.9
2017-08-13T10:49:46.983Z,3.8
2017-08-13T10:50:50.154Z,3.8
2017-08-13T10:51:52.997Z,3.8
2017-08-13T10:52:55.498Z,3.7
2017-08-13T10:53:57.992Z,3.7
2017-08-13T10:55:00.492Z,3.7
2017-08-13T10:56:03.341Z,3.6
2017-08-13T10:57:06.184Z,3.7
2017-08-13T10:58:09.053Z,3.7
2017-08-13T10:59:12.221Z,3.7
2017-08-13T11:00:14.719Z,3.7
2017-08-13T11:01:17.237Z,3.7
2017-08-13T11:02:19.723Z,3.6
2017-08-13T11:03:22.253Z,3.5
2017-08-13T11:04:24.766Z,3.5
2017-08-13T11:05:28.637Z,3.6
2017-08-13T11:06:31.150Z,3.5
2017-08-13T11:07:33.635Z,3.5
2017-08-13T11:08:36.127Z,3.4
2017-08-13T11:09:38.638Z,3.4
2017-08-13T11:10:41.136Z,3.3
2017-08-13T11:11:43.632Z,3.4
2017-08-13T11:12:46.476Z,3.3
2017-08-13T11:13:48.983Z,3.4
2017-08-13T11:14:51.456Z,3.3
2017-08-13T11:15:53.966Z,3.3
2017-08-13T11:16:56.472Z,3.2
2017-08-13T11:17:59.315Z,3.3
2017-08-13T11:19:02.828Z,3.3
2017-08-13T11:20:05.338Z,3.2
2017-08-13T11:21:07.847Z,3.3
2017-08-13T11:22:10.707Z,3.3
2017-08-13T11:23:13.210Z,3.1
2017-08-13T11:24:16.482Z,3.3
2017-08-13T11:25:19.015Z,3.3
2017-08-13T11:26:21.547Z,3.2
2017-08-13T11:27:24.045Z,3.2
2017-08-13T11:28:27.242Z,3.2
2017-08-13T11:29:29.736Z,3.2
2017-08-13T11:30:32.586Z,3.2
2017-08-13T11:31:35.437Z,3.2
2017-08-13T11:32:38.291Z,3.3
2017-08-13T11:33:40.769Z,3.2
2017-08-13T11:34:43.290Z,3.2
2017-08-13T11:35:45.790Z,3.2
2017-08-13T11:36:48.637Z,3.2
2017-08-13T11:37:51.151Z,3.2
2017-08-13T11:38:53.642Z,3.2
2017-08-13T11:39:56.135Z,3.3
2017-08-13T11:40:58.645Z,3.3
2017-08-13T11:42:01.128Z,3.3
2017-08-13T11:43:03.624Z,3.3
2017-08-13T11:44:06.485Z,3.3
2017-08-13T11:45:08.985Z,3.4
2017-08-13T11:46:11.502Z,3.4
2017-08-13T11:47:14.344Z,3.4
2017-08-13T11:48:17.525Z,3.4
2017-08-13T11:49:20.027Z,3.5
2017-08-13T11:50:22.539Z,3.5
2017-08-13T11:51:25.379Z,3.5
2017-08-13T11:52:27.902Z,3.5
2017-08-13T11:53:30.408Z,3.5
2017-08-13T11:54:33.765Z,3.5
2017-08-13T11:55:36.615Z,3.5
2017-08-13T11:56:39.447Z,3.6
2017-08-13T11:57:41.935Z,3.6
2017-08-13T11:58:44.797Z,3.5
2017-08-13T11:59:47.279Z,3.6
2017-08-13T12:00:50.133Z,3.6
2017-08-13T12:01:52.643Z,3.5
2017-08-13T12:02:55.143Z,3.5
2017-08-13T12:03:57.677Z,3.6
2017-08-13T12:05:00.185Z,3.5
2017-08-13T12:06:03.049Z,3.5
2017-08-13T12:07:05.572Z,3.5
2017-08-13T12:08:08.063Z,3.5
2017-08-13T12:09:10.883Z,3.5
2017-08-13T12:10:13.389Z,3.6
2017-08-13T12:11:15.883Z,3.6
2017-08-13T12:12:18.419Z,3.6
2017-08-13T12:13:20.905Z,3.7
2017-08-13T12:14:24.098Z,3.7
2017-08-13T12:15:26.589Z,3.7
2017-08-13T12:16:29.096Z,3.7
2017-08-13T12:17:31.608Z,3.8
2017-08-13T12:18:34.136Z,3.8
2017-08-13T12:19:36.634Z,3.9
2017-08-13T12:20:39.136Z,3.9
2017-08-13T12:21:41.621Z,3.9
2017-08-13T12:22:44.127Z,3.9
2017-08-13T12:23:46.630Z,3.9
2017-08-13T12:24:49.151Z,4.1
2017-08-13T12:25:51.653Z,4.1
2017-08-13T12:26:54.150Z,4.1
2017-08-13T12:27:56.657Z,4.2
2017-08-13T12:28:59.158Z,4.2
2017-08-13T12:30:01.667Z,4.2
2017-08-13T12:31:04.518Z,4.3
2017-08-13T12:32:07.364Z,4.3
2017-08-13T12:33:10.226Z,4.3
2017-08-13T12:34:12.742Z,4.4
2017-08-13T12:35:15.263Z,4.5
2017-08-13T12:36:17.773Z,4.6
2017-08-13T12:37:20.616Z,4.5
2017-08-13T12:38:23.517Z,4.7
2017-08-13T12:39:26.054Z,4.7
2017-08-13T12:40:28.554Z,4.7
2017-08-13T12:41:31.055Z,4.8
2017-08-13T12:42:33.911Z,4.7
2017-08-13T12:43:36.751Z,4.7
2017-08-13T12:44:39.248Z,4.8
2017-08-13T12:45:42.099Z,4.7
2017-08-13T12:46:44.589Z,4.8
2017-08-13T12:47:47.073Z,4.7
2017-08-13T12:48:49.585Z,4.8
2017-08-13T12:49:52.423Z,4.8
2017-08-13T12:50:55.614Z,4.8
2017-08-13T12:51:58.455Z,4.8
2017-08-13T12:53:01.292Z,4.8
2017-08-13T12:54:03.787Z,4.8
2017-08-13T12:55:06.682Z,4.7
2017-08-13T12:56:09.169Z,4.8
2017-08-13T12:57:11.690Z,4.7
2017-08-13T12:58:14.210Z,4.8
2017-08-13T12:59:16.710Z,4.8
2017-08-13T13:00:19.549Z,4.7
2017-08-13T13:01:22.739Z,4.8
2017-08-13T13:02:25.228Z,4.8
2017-08-13T13:03:28.183Z,4.8
2017-08-13T13:04:30.700Z,4.8
2017-08-13T13:05:38.406Z,4.8
2017-08-13T13:06:40.949Z,4.9
2017-08-13T13:07:43.782Z,4.9
2017-08-13T13:08:46.285Z,4.9
2017-08-13T13:09:50.269Z,4.9
2017-08-13T13:10:55.936Z,4.9
2017-08-13T13:11:58.630Z,4.9
2017-08-13T13:13:01.888Z,4.9
2017-08-13T13:14:04.420Z,4.9
2017-08-13T13:15:07.264Z,4.9
2017-08-13T13:16:10.339Z,4.8
2017-08-13T13:17:13.216Z,4.8
2017-08-13T13:18:15.732Z,4.8
2017-08-13T13:19:18.586Z,4.8
2017-08-13T13:20:21.473Z,4.8
2017-08-13T13:21:24.639Z,4.8
2017-08-13T13:22:27.140Z,4.8
2017-08-13T13:23:29.638Z,4.7
2017-08-13T13:24:32.161Z,4.8
2017-08-13T13:25:34.666Z,4.7
2017-08-13T13:26:37.167Z,4.6
2017-08-13T13:27:39.690Z,4.6
2017-08-13T13:28:42.204Z,4.6
2017-08-13T13:29:44.709Z,4.5
2017-08-13T13:30:47.543Z,4.9
2017-08-13T13:31:50.421Z,4.5
2017-08-13T13:32:52.959Z,4.5
2017-08-13T13:33:55.482Z,4.4
2017-08-13T13:34:58.327Z,4.3
2017-08-13T13:36:00.833Z,4.4
2017-08-13T13:37:03.669Z,4.4
2017-08-13T13:38:06.532Z,4.5
2017-08-13T13:39:09.021Z,4.4
2017-08-13T13:40:11.535Z,4.4
2017-08-13T13:41:14.042Z,4.4
2017-08-13T13:42:16.557Z,4.4
2017-08-13T13:43:19.044Z,4.4
2017-08-13T13:44:21.546Z,4.4
2017-08-13T13:45:24.064Z,4.4
2017-08-13T13:46:26.560Z,4.3
2017-08-13T13:47:29.058Z,4.4
2017-08-13T13:48:31.946Z,4.4
2017-08-13T13:49:34.446Z,4.3
2017-08-13T13:50:36.948Z,4.3
2017-08-13T13:51:39.792Z,4.3
2017-08-13T13:52:42.289Z,4.2
2017-08-13T13:53:44.787Z,4.2
2017-08-13T13:54:47.301Z,4.2
2017-08-13T13:55:49.789Z,4
2017-08-13T13:56:52.633Z,4.1
2017-08-13T13:57:55.484Z,4.1
2017-08-13T13:58:57.995Z,4
2017-08-13T14:00:00.846Z,4.1
2017-08-13T14:01:03.698Z,4
2017-08-13T14:02:06.542Z,4.1
2017-08-13T14:03:09.077Z,4
2017-08-13T14:04:11.913Z,4
2017-08-13T14:05:14.404Z,4
2017-08-13T14:06:17.240Z,4
2017-08-13T14:07:19.734Z,4
2017-08-13T14:08:22.245Z,3.9
2017-08-13T14:09:24.774Z,3.9
2017-08-13T14:10:27.609Z,4
2017-08-13T14:11:30.110Z,3.9
2017-08-13T14:12:32.949Z,3.9
2017-08-13T14:13:35.475Z,3.8
2017-08-13T14:14:37.966Z,3.8
2017-08-13T14:15:41.160Z,3.8
2017-08-13T14:16:43.673Z,3.8
2017-08-13T14:17:46.168Z,3.7
2017-08-13T14:18:48.665Z,3.7
2017-08-13T14:19:51.194Z,3.7
2017-08-13T14:20:54.350Z,3.8
2017-08-13T14:21:56.851Z,3.8
2017-08-13T14:22:59.711Z,3.7
2017-08-13T14:24:02.550Z,3.7
2017-08-13T14:25:05.397Z,3.7
2017-08-13T14:26:07.911Z,3.7
2017-08-13T14:27:10.729Z,3.7